Feldkirchen, Austria
Current Conditions -  °F | °C
As of 1:50 PM on Sunday 21 Dec 2014 (Local Time) from LOWK Reporting Station
Few Clouds Few Clouds  
Wind Chill: 46°   Ceiling: Unl
Heat Index: 46°   Visibility: 6mi
Dew Point: 37°   Wind: 2mph
Humidity: 71%   Direction: NA
Pressure: 30.36"   Gusts: NA
Location:  46.73°N, 14.08°E
Report Text: LOWK 211150Z VRB02KT 9999 FEW070 08/03 Q1028 NOSIG
Loading
Personal Weather Stations






























Interactive Weather Map New forecast layout! Learn more

10-Day Weather Forecast

Advertisements
Track Severe Weather on mobile